sensor_id;sensor_type;location;lat;lon;timestamp;temperature;humidity
48978;DHT22;34793;48.940;2.618;2022-12-29T00:02:07;15.10;95.60
48978;DHT22;34793;48.940;2.618;2022-12-29T00:04:32;15.20;95.60
48978;DHT22;34793;48.940;2.618;2022-12-29T00:06:58;15.00;95.70
48978;DHT22;34793;48.940;2.618;2022-12-29T00:09:23;15.10;95.70
48978;DHT22;34793;48.940;2.618;2022-12-29T00:11:49;15.40;95.50
48978;DHT22;34793;48.940;2.618;2022-12-29T00:14:15;15.30;95.40
48978;DHT22;34793;48.940;2.618;2022-12-29T00:16:59;15.40;95.30
48978;DHT22;34793;48.940;2.618;2022-12-29T00:19:24;15.50;94.90
48978;DHT22;34793;48.940;2.618;2022-12-29T00:22:12;15.50;95.00
48978;DHT22;34793;48.940;2.618;2022-12-29T00:24:56;15.40;95.10
48978;DHT22;34793;48.940;2.618;2022-12-29T00:27:34;15.30;95.10
48978;DHT22;34793;48.940;2.618;2022-12-29T00:30:20;15.40;95.20
48978;DHT22;34793;48.940;2.618;2022-12-29T00:35:56;15.40;95.10
48978;DHT22;34793;48.940;2.618;2022-12-29T00:38:23;15.30;95.10
48978;DHT22;34793;48.940;2.618;2022-12-29T00:41:07;15.40;95.10
48978;DHT22;34793;48.940;2.618;2022-12-29T00:43:51;15.50;94.70
48978;DHT22;34793;48.940;2.618;2022-12-29T00:46:33;15.60;94.80
48978;DHT22;34793;48.940;2.618;2022-12-29T00:48:59;15.40;95.10
48978;DHT22;34793;48.940;2.618;2022-12-29T00:51:43;15.40;95.00
48978;DHT22;34793;48.940;2.618;2022-12-29T00:54:09;15.50;95.20
48978;DHT22;34793;48.940;2.618;2022-12-29T00:56:34;15.50;95.20
48978;DHT22;34793;48.940;2.618;2022-12-29T00:59:04;15.60;95.30
48978;DHT22;34793;48.940;2.618;2022-12-29T01:01:30;15.30;95.60
48978;DHT22;34793;48.940;2.618;2022-12-29T01:03:55;15.40;95.90
48978;DHT22;34793;48.940;2.618;2022-12-29T01:06:21;15.40;95.90
48978;DHT22;34793;48.940;2.618;2022-12-29T01:08:46;15.60;95.60
48978;DHT22;34793;48.940;2.618;2022-12-29T01:11:12;15.40;95.80
48978;DHT22;34793;48.940;2.618;2022-12-29T01:13:38;15.60;95.80
48978;DHT22;34793;48.940;2.618;2022-12-29T01:16:04;15.40;95.90
48978;DHT22;34793;48.940;2.618;2022-12-29T01:18:30;15.40;95.80
48978;DHT22;34793;48.940;2.618;2022-12-29T01:21:03;15.30;95.90
48978;DHT22;34793;48.940;2.618;2022-12-29T01:23:29;15.30;96.10
48978;DHT22;34793;48.940;2.618;2022-12-29T01:25:55;15.40;96.10
48978;DHT22;34793;48.940;2.618;2022-12-29T01:28:21;15.40;96.20
48978;DHT22;34793;48.940;2.618;2022-12-29T01:30:46;15.50;96.30
48978;DHT22;34793;48.940;2.618;2022-12-29T01:33:12;15.40;96.20
48978;DHT22;34793;48.940;2.618;2022-12-29T01:35:37;15.60;96.00
48978;DHT22;34793;48.940;2.618;2022-12-29T01:38:03;15.70;95.80
48978;DHT22;34793;48.940;2.618;2022-12-29T01:40:28;15.70;95.70
48978;DHT22;34793;48.940;2.618;2022-12-29T01:42:54;15.90;95.40
48978;DHT22;34793;48.940;2.618;2022-12-29T01:45:19;15.80;95.10
48978;DHT22;34793;48.940;2.618;2022-12-29T01:47:49;15.80;95.20
48978;DHT22;34793;48.940;2.618;2022-12-29T01:52:49;15.70;95.40
48978;DHT22;34793;48.940;2.618;2022-12-29T01:55:16;15.70;95.60
48978;DHT22;34793;48.940;2.618;2022-12-29T01:57:44;15.70;95.80
48978;DHT22;34793;48.940;2.618;2022-12-29T02:00:12;15.70;95.50
48978;DHT22;34793;48.940;2.618;2022-12-29T02:02:39;15.80;95.20
48978;DHT22;34793;48.940;2.618;2022-12-29T02:05:14;15.90;95.00
48978;DHT22;34793;48.940;2.618;2022-12-29T02:07:41;16.00;94.70
48978;DHT22;34793;48.940;2.618;2022-12-29T02:10:07;16.00;94.50
48978;DHT22;34793;48.940;2.618;2022-12-29T02:12:33;16.00;94.70
48978;DHT22;34793;48.940;2.618;2022-12-29T02:14:59;16.10;94.40
48978;DHT22;34793;48.940;2.618;2022-12-29T02:19:58;15.50;94.30
48978;DHT22;34793;48.940;2.618;2022-12-29T02:28:17;15.00;94.70
48978;DHT22;34793;48.940;2.618;2022-12-29T02:41:30;14.80;95.50
48978;DHT22;34793;48.940;2.618;2022-12-29T02:46:34;15.00;95.10
48978;DHT22;34793;48.940;2.618;2022-12-29T02:49:20;14.70;95.20
48978;DHT22;34793;48.940;2.618;2022-12-29T02:52:01;14.90;95.40
48978;DHT22;34793;48.940;2.618;2022-12-29T02:54:28;15.00;94.80
48978;DHT22;34793;48.940;2.618;2022-12-29T02:57:14;15.10;94.50
48978;DHT22;34793;48.940;2.618;2022-12-29T02:59:40;15.00;94.70
48978;DHT22;34793;48.940;2.618;2022-12-29T03:07:32;14.80;94.50
48978;DHT22;34793;48.940;2.618;2022-12-29T03:10:07;14.90;94.70
48978;DHT22;34793;48.940;2.618;2022-12-29T03:15:27;15.20;93.90
48978;DHT22;34793;48.940;2.618;2022-12-29T03:18:19;15.30;93.50
48978;DHT22;34793;48.940;2.618;2022-12-29T03:20:52;15.40;93.20
48978;DHT22;34793;48.940;2.618;2022-12-29T03:23:18;15.40;93.20
48978;DHT22;34793;48.940;2.618;2022-12-29T03:25:46;15.40;93.20
48978;DHT22;34793;48.940;2.618;2022-12-29T03:28:30;15.20;93.40
48978;DHT22;34793;48.940;2.618;2022-12-29T03:30:57;15.40;93.20
48978;DHT22;34793;48.940;2.618;2022-12-29T03:33:24;15.50;93.10
48978;DHT22;34793;48.940;2.618;2022-12-29T03:35:51;15.30;93.00
48978;DHT22;34793;48.940;2.618;2022-12-29T03:41:04;15.30;92.70
48978;DHT22;34793;48.940;2.618;2022-12-29T03:43:30;15.20;92.80
48978;DHT22;34793;48.940;2.618;2022-12-29T03:45:56;15.10;93.00
48978;DHT22;34793;48.940;2.618;2022-12-29T03:48:21;15.00;93.20
48978;DHT22;34793;48.940;2.618;2022-12-29T03:50:47;15.00;93.10
48978;DHT22;34793;48.940;2.618;2022-12-29T03:53:12;15.00;92.90
48978;DHT22;34793;48.940;2.618;2022-12-29T03:55:38;14.80;92.90
48978;DHT22;34793;48.940;2.618;2022-12-29T03:58:03;14.70;93.20
48978;DHT22;34793;48.940;2.618;2022-12-29T04:00:29;14.70;93.30
48978;DHT22;34793;48.940;2.618;2022-12-29T04:02:54;14.90;93.10
48978;DHT22;34793;48.940;2.618;2022-12-29T04:05:20;15.00;92.90
48978;DHT22;34793;48.940;2.618;2022-12-29T04:07:45;14.90;92.80
48978;DHT22;34793;48.940;2.618;2022-12-29T04:10:11;14.90;92.90
48978;DHT22;34793;48.940;2.618;2022-12-29T04:12:37;14.90;93.10
48978;DHT22;34793;48.940;2.618;2022-12-29T04:15:02;14.90;92.80
48978;DHT22;34793;48.940;2.618;2022-12-29T04:17:28;15.20;92.80
48978;DHT22;34793;48.940;2.618;2022-12-29T04:19:54;15.20;92.60
48978;DHT22;34793;48.940;2.618;2022-12-29T04:22:42;15.30;92.20
48978;DHT22;34793;48.940;2.618;2022-12-29T04:25:08;15.40;92.20
48978;DHT22;34793;48.940;2.618;2022-12-29T04:27:33;15.30;92.30
48978;DHT22;34793;48.940;2.618;2022-12-29T04:29:59;15.30;92.40
48978;DHT22;34793;48.940;2.618;2022-12-29T04:32:24;15.40;92.40
48978;DHT22;34793;48.940;2.618;2022-12-29T04:34:50;15.50;92.20
48978;DHT22;34793;48.940;2.618;2022-12-29T04:37:15;15.70;91.90
48978;DHT22;34793;48.940;2.618;2022-12-29T04:39:41;15.70;91.70
48978;DHT22;34793;48.940;2.618;2022-12-29T04:42:06;15.60;92.00
48978;DHT22;34793;48.940;2.618;2022-12-29T04:44:32;15.60;92.00
48978;DHT22;34793;48.940;2.618;2022-12-29T04:46:57;15.60;92.10
48978;DHT22;34793;48.940;2.618;2022-12-29T04:49:23;15.70;92.00
48978;DHT22;34793;48.940;2.618;2022-12-29T04:51:48;15.60;91.90
48978;DHT22;34793;48.940;2.618;2022-12-29T04:54:14;15.50;92.30
48978;DHT22;34793;48.940;2.618;2022-12-29T04:56:39;15.30;92.40
48978;DHT22;34793;48.940;2.618;2022-12-29T04:59:05;15.20;92.30
48978;DHT22;34793;48.940;2.618;2022-12-29T05:01:30;15.10;92.40
48978;DHT22;34793;48.940;2.618;2022-12-29T05:03:56;15.20;92.50
48978;DHT22;34793;48.940;2.618;2022-12-29T05:06:21;15.10;92.60
48978;DHT22;34793;48.940;2.618;2022-12-29T05:08:46;15.10;92.60
48978;DHT22;34793;48.940;2.618;2022-12-29T05:11:12;15.10;92.50
48978;DHT22;34793;48.940;2.618;2022-12-29T05:13:38;14.90;92.60
48978;DHT22;34793;48.940;2.618;2022-12-29T05:16:03;14.90;92.70
48978;DHT22;34793;48.940;2.618;2022-12-29T05:18:29;14.90;93.10
48978;DHT22;34793;48.940;2.618;2022-12-29T05:20:54;14.80;92.90
48978;DHT22;34793;48.940;2.618;2022-12-29T05:23:20;14.80;92.70
48978;DHT22;34793;48.940;2.618;2022-12-29T05:25:45;14.80;92.70
48978;DHT22;34793;48.940;2.618;2022-12-29T05:28:11;14.90;92.60
48978;DHT22;34793;48.940;2.618;2022-12-29T05:30:36;14.90;92.40
48978;DHT22;34793;48.940;2.618;2022-12-29T05:33:02;15.00;92.40
48978;DHT22;34793;48.940;2.618;2022-12-29T05:35:27;15.00;92.20
48978;DHT22;34793;48.940;2.618;2022-12-29T05:37:53;15.00;92.30
48978;DHT22;34793;48.940;2.618;2022-12-29T05:40:18;14.90;92.50
48978;DHT22;34793;48.940;2.618;2022-12-29T05:42:43;14.90;92.50
48978;DHT22;34793;48.940;2.618;2022-12-29T05:45:09;14.70;92.50
48978;DHT22;34793;48.940;2.618;2022-12-29T05:47:35;14.60;92.70
48978;DHT22;34793;48.940;2.618;2022-12-29T05:50:00;14.60;92.50
48978;DHT22;34793;48.940;2.618;2022-12-29T05:52:26;14.60;92.50
48978;DHT22;34793;48.940;2.618;2022-12-29T05:54:51;14.70;92.20
48978;DHT22;34793;48.940;2.618;2022-12-29T05:57:17;14.50;92.10
48978;DHT22;34793;48.940;2.618;2022-12-29T05:59:42;14.50;92.00
48978;DHT22;34793;48.940;2.618;2022-12-29T06:02:08;14.70;91.80
48978;DHT22;34793;48.940;2.618;2022-12-29T06:04:34;14.50;91.70
48978;DHT22;34793;48.940;2.618;2022-12-29T06:06:59;14.70;91.70
48978;DHT22;34793;48.940;2.618;2022-12-29T06:09:25;14.50;91.90
48978;DHT22;34793;48.940;2.618;2022-12-29T06:11:50;14.50;91.90
48978;DHT22;34793;48.940;2.618;2022-12-29T06:14:17;15.90;92.00
48978;DHT22;34793;48.940;2.618;2022-12-29T06:16:43;14.50;91.50
48978;DHT22;34793;48.940;2.618;2022-12-29T06:19:08;14.50;91.50
48978;DHT22;34793;48.940;2.618;2022-12-29T06:21:34;14.60;91.30
48978;DHT22;34793;48.940;2.618;2022-12-29T06:23:59;14.70;91.20
48978;DHT22;34793;48.940;2.618;2022-12-29T06:26:25;14.80;91.20
48978;DHT22;34793;48.940;2.618;2022-12-29T06:28:50;14.70;90.90
48978;DHT22;34793;48.940;2.618;2022-12-29T06:31:16;14.80;91.00
48978;DHT22;34793;48.940;2.618;2022-12-29T06:33:41;14.60;91.10
48978;DHT22;34793;48.940;2.618;2022-12-29T06:36:07;14.50;91.20
48978;DHT22;34793;48.940;2.618;2022-12-29T06:38:32;14.40;91.20
48978;DHT22;34793;48.940;2.618;2022-12-29T06:40:58;14.50;91.30
48978;DHT22;34793;48.940;2.618;2022-12-29T06:43:23;14.50;91.30
48978;DHT22;34793;48.940;2.618;2022-12-29T06:45:49;14.50;91.20
48978;DHT22;34793;48.940;2.618;2022-12-29T06:48:14;14.40;91.50
48978;DHT22;34793;48.940;2.618;2022-12-29T06:50:40;14.30;91.50
48978;DHT22;34793;48.940;2.618;2022-12-29T06:53:05;14.50;91.40
48978;DHT22;34793;48.940;2.618;2022-12-29T06:55:31;14.60;91.20
48978;DHT22;34793;48.940;2.618;2022-12-29T06:57:57;14.80;90.80
48978;DHT22;34793;48.940;2.618;2022-12-29T07:00:23;14.80;90.80
48978;DHT22;34793;48.940;2.618;2022-12-29T07:02:48;14.70;91.00
48978;DHT22;34793;48.940;2.618;2022-12-29T07:05:14;14.70;91.20
48978;DHT22;34793;48.940;2.618;2022-12-29T07:07:39;14.70;91.20
48978;DHT22;34793;48.940;2.618;2022-12-29T07:10:05;14.70;91.10
48978;DHT22;34793;48.940;2.618;2022-12-29T07:12:30;14.70;91.30
48978;DHT22;34793;48.940;2.618;2022-12-29T07:14:56;14.70;91.40
48978;DHT22;34793;48.940;2.618;2022-12-29T07:17:21;14.70;91.40
48978;DHT22;34793;48.940;2.618;2022-12-29T07:19:47;14.80;91.30
48978;DHT22;34793;48.940;2.618;2022-12-29T07:22:12;14.90;91.40
48978;DHT22;34793;48.940;2.618;2022-12-29T07:24:37;14.70;91.30
48978;DHT22;34793;48.940;2.618;2022-12-29T07:27:03;14.90;91.10
48978;DHT22;34793;48.940;2.618;2022-12-29T07:29:29;14.90;91.10
48978;DHT22;34793;48.940;2.618;2022-12-29T07:31:54;14.50;91.40
48978;DHT22;34793;48.940;2.618;2022-12-29T07:34:20;14.50;91.50
48978;DHT22;34793;48.940;2.618;2022-12-29T07:36:45;14.70;91.30
48978;DHT22;34793;48.940;2.618;2022-12-29T07:39:10;14.80;91.10
48978;DHT22;34793;48.940;2.618;2022-12-29T07:41:36;14.70;91.10
48978;DHT22;34793;48.940;2.618;2022-12-29T07:44:02;14.70;91.00
48978;DHT22;34793;48.940;2.618;2022-12-29T07:46:27;14.60;91.20
48978;DHT22;34793;48.940;2.618;2022-12-29T07:48:53;14.50;91.30
48978;DHT22;34793;48.940;2.618;2022-12-29T07:51:20;14.40;91.30
48978;DHT22;34793;48.940;2.618;2022-12-29T07:53:45;14.50;91.50
48978;DHT22;34793;48.940;2.618;2022-12-29T07:56:11;14.60;91.40
48978;DHT22;34793;48.940;2.618;2022-12-29T07:58:36;14.70;91.20
48978;DHT22;34793;48.940;2.618;2022-12-29T08:01:02;14.70;91.30
48978;DHT22;34793;48.940;2.618;2022-12-29T08:03:27;14.70;91.10
48978;DHT22;34793;48.940;2.618;2022-12-29T08:05:53;14.90;90.90
48978;DHT22;34793;48.940;2.618;2022-12-29T08:08:18;14.70;90.80
48978;DHT22;34793;48.940;2.618;2022-12-29T08:10:45;14.80;90.80
48978;DHT22;34793;48.940;2.618;2022-12-29T08:13:10;14.70;91.10
48978;DHT22;34793;48.940;2.618;2022-12-29T08:15:37;14.70;91.00
48978;DHT22;34793;48.940;2.618;2022-12-29T08:18:03;14.70;90.80
48978;DHT22;34793;48.940;2.618;2022-12-29T08:20:29;14.70;90.80
48978;DHT22;34793;48.940;2.618;2022-12-29T08:22:54;14.90;90.70
48978;DHT22;34793;48.940;2.618;2022-12-29T08:25:20;14.80;90.60
48978;DHT22;34793;48.940;2.618;2022-12-29T08:27:46;14.90;90.80
48978;DHT22;34793;48.940;2.618;2022-12-29T08:30:12;14.90;90.40
48978;DHT22;34793;48.940;2.618;2022-12-29T08:32:37;14.90;90.40
48978;DHT22;34793;48.940;2.618;2022-12-29T08:35:03;15.00;90.20
48978;DHT22;34793;48.940;2.618;2022-12-29T08:37:28;15.20;90.10
48978;DHT22;34793;48.940;2.618;2022-12-29T08:39:54;15.10;89.70
48978;DHT22;34793;48.940;2.618;2022-12-29T08:42:19;15.10;89.90
48978;DHT22;34793;48.940;2.618;2022-12-29T08:44:45;15.30;89.50
48978;DHT22;34793;48.940;2.618;2022-12-29T08:47:10;15.20;89.80
48978;DHT22;34793;48.940;2.618;2022-12-29T08:49:36;15.10;90.00
48978;DHT22;34793;48.940;2.618;2022-12-29T08:52:02;14.90;90.00
48978;DHT22;34793;48.940;2.618;2022-12-29T08:54:27;14.90;90.10
48978;DHT22;34793;48.940;2.618;2022-12-29T08:56:52;14.80;90.00
48978;DHT22;34793;48.940;2.618;2022-12-29T08:59:19;14.90;90.20
48978;DHT22;34793;48.940;2.618;2022-12-29T09:01:44;15.10;89.80
48978;DHT22;34793;48.940;2.618;2022-12-29T09:04:10;14.80;89.40
48978;DHT22;34793;48.940;2.618;2022-12-29T09:06:35;14.90;90.10
48978;DHT22;34793;48.940;2.618;2022-12-29T09:09:01;14.90;89.50
48978;DHT22;34793;48.940;2.618;2022-12-29T09:11:26;15.10;89.50
48978;DHT22;34793;48.940;2.618;2022-12-29T09:13:52;14.80;90.00
48978;DHT22;34793;48.940;2.618;2022-12-29T09:16:18;14.80;90.10
48978;DHT22;34793;48.940;2.618;2022-12-29T09:18:45;14.80;89.90
48978;DHT22;34793;48.940;2.618;2022-12-29T09:21:11;15.00;89.70
48978;DHT22;34793;48.940;2.618;2022-12-29T09:23:36;14.90;88.80
48978;DHT22;34793;48.940;2.618;2022-12-29T09:26:02;15.10;88.90
48978;DHT22;34793;48.940;2.618;2022-12-29T09:28:28;15.10;88.30
48978;DHT22;34793;48.940;2.618;2022-12-29T09:30:54;15.00;88.70
48978;DHT22;34793;48.940;2.618;2022-12-29T09:33:19;15.10;88.90
48978;DHT22;34793;48.940;2.618;2022-12-29T09:35:49;15.20;88.90
48978;DHT22;34793;48.940;2.618;2022-12-29T09:38:15;15.30;88.70
48978;DHT22;34793;48.940;2.618;2022-12-29T09:40:41;15.30;88.10
48978;DHT22;34793;48.940;2.618;2022-12-29T09:45:49;15.30;87.70
48978;DHT22;34793;48.940;2.618;2022-12-29T09:48:21;15.40;87.40
48978;DHT22;34793;48.940;2.618;2022-12-29T09:51:10;15.40;87.70
48978;DHT22;34793;48.940;2.618;2022-12-29T09:53:38;15.60;87.70
48978;DHT22;34793;48.940;2.618;2022-12-29T09:56:05;15.60;87.50
48978;DHT22;34793;48.940;2.618;2022-12-29T09:58:37;15.60;87.20
48978;DHT22;34793;48.940;2.618;2022-12-29T10:04:11;15.90;87.00
48978;DHT22;34793;48.940;2.618;2022-12-29T10:06:32;15.70;86.90
48978;DHT22;34793;48.940;2.618;2022-12-29T10:14:47;15.50;87.20
48978;DHT22;34793;48.940;2.618;2022-12-29T10:17:12;15.60;87.20
48978;DHT22;34793;48.940;2.618;2022-12-29T10:22:45;15.30;87.40
48978;DHT22;34793;48.940;2.618;2022-12-29T10:25:02;15.30;87.30
48978;DHT22;34793;48.940;2.618;2022-12-29T10:27:34;15.40;88.00
48978;DHT22;34793;48.940;2.618;2022-12-29T10:30:01;15.50;87.30
48978;DHT22;34793;48.940;2.618;2022-12-29T10:34:54;15.70;86.20
48978;DHT22;34793;48.940;2.618;2022-12-29T10:37:25;15.70;86.20
48978;DHT22;34793;48.940;2.618;2022-12-29T10:39:53;16.00;85.60
48978;DHT22;34793;48.940;2.618;2022-12-29T10:45:04;15.80;85.30
48978;DHT22;34793;48.940;2.618;2022-12-29T10:47:33;15.90;84.50
48978;DHT22;34793;48.940;2.618;2022-12-29T10:49:59;15.70;84.50
48978;DHT22;34793;48.940;2.618;2022-12-29T10:52:26;15.60;84.90
48978;DHT22;34793;48.940;2.618;2022-12-29T10:54:56;15.50;85.20
48978;DHT22;34793;48.940;2.618;2022-12-29T10:59:48;15.80;84.80
48978;DHT22;34793;48.940;2.618;2022-12-29T11:02:40;16.00;84.60
48978;DHT22;34793;48.940;2.618;2022-12-29T11:07:28;16.20;83.80
48978;DHT22;34793;48.940;2.618;2022-12-29T11:09:55;16.20;83.20
48978;DHT22;34793;48.940;2.618;2022-12-29T11:12:40;16.10;82.30
48978;DHT22;34793;48.940;2.618;2022-12-29T11:15:13;15.90;82.60
48978;DHT22;34793;48.940;2.618;2022-12-29T11:17:43;16.00;82.60
48978;DHT22;34793;48.940;2.618;2022-12-29T11:26:33;15.80;83.90
48978;DHT22;34793;48.940;2.618;2022-12-29T11:28:34;15.60;82.60
48978;DHT22;34793;48.940;2.618;2022-12-29T11:31:00;15.70;82.70
48978;DHT22;34793;48.940;2.618;2022-12-29T11:33:30;15.70;82.50
48978;DHT22;34793;48.940;2.618;2022-12-29T11:36:01;15.90;82.70
48978;DHT22;34793;48.940;2.618;2022-12-29T11:38:30;15.90;82.10
48978;DHT22;34793;48.940;2.618;2022-12-29T11:40:57;16.10;82.20
48978;DHT22;34793;48.940;2.618;2022-12-29T11:43:26;16.00;81.10
48978;DHT22;34793;48.940;2.618;2022-12-29T11:45:53;16.00;81.40
48978;DHT22;34793;48.940;2.618;2022-12-29T11:48:20;16.00;81.70
48978;DHT22;34793;48.940;2.618;2022-12-29T11:50:53;16.20;81.40
48978;DHT22;34793;48.940;2.618;2022-12-29T11:53:32;16.40;81.40
48978;DHT22;34793;48.940;2.618;2022-12-29T11:56:03;16.70;80.00
48978;DHT22;34793;48.940;2.618;2022-12-29T11:58:30;16.50;79.90
48978;DHT22;34793;48.940;2.618;2022-12-29T12:01:01;16.20;80.40
48978;DHT22;34793;48.940;2.618;2022-12-29T12:03:28;15.80;80.30
48978;DHT22;34793;48.940;2.618;2022-12-29T12:05:57;15.80;81.10
48978;DHT22;34793;48.940;2.618;2022-12-29T12:08:37;15.90;80.70
48978;DHT22;34793;48.940;2.618;2022-12-29T12:11:17;15.90;80.60
48978;DHT22;34793;48.940;2.618;2022-12-29T12:16:15;16.20;80.40
48978;DHT22;34793;48.940;2.618;2022-12-29T12:18:44;16.40;80.10
48978;DHT22;34793;48.940;2.618;2022-12-29T12:21:16;16.70;79.00
48978;DHT22;34793;48.940;2.618;2022-12-29T12:23:48;16.40;78.10
48978;DHT22;34793;48.940;2.618;2022-12-29T12:26:21;16.30;77.70
48978;DHT22;34793;48.940;2.618;2022-12-29T12:31:21;16.30;77.70
48978;DHT22;34793;48.940;2.618;2022-12-29T12:33:50;16.20;77.60
48978;DHT22;34793;48.940;2.618;2022-12-29T12:39:18;16.20;78.90
48978;DHT22;34793;48.940;2.618;2022-12-29T12:44:30;16.50;78.00
48978;DHT22;34793;48.940;2.618;2022-12-29T12:54:55;16.70;77.70
48978;DHT22;34793;48.940;2.618;2022-12-29T13:00:11;17.30;76.20
48978;DHT22;34793;48.940;2.618;2022-12-29T13:02:50;17.30;76.80
48978;DHT22;34793;48.940;2.618;2022-12-29T13:05:37;17.10;76.90
48978;DHT22;34793;48.940;2.618;2022-12-29T13:23:58;17.00;77.20
48978;DHT22;34793;48.940;2.618;2022-12-29T13:36:19;16.80;77.40
48978;DHT22;34793;48.940;2.618;2022-12-29T13:38:58;16.80;77.20
48978;DHT22;34793;48.940;2.618;2022-12-29T13:41:30;16.60;76.90
48978;DHT22;34793;48.940;2.618;2022-12-29T13:43:57;16.30;76.40
48978;DHT22;34793;48.940;2.618;2022-12-29T13:46:24;16.10;76.90
48978;DHT22;34793;48.940;2.618;2022-12-29T13:48:57;15.70;77.10
48978;DHT22;34793;48.940;2.618;2022-12-29T13:51:23;15.50;76.50
48978;DHT22;34793;48.940;2.618;2022-12-29T13:59:14;15.60;76.90
48978;DHT22;34793;48.940;2.618;2022-12-29T14:01:48;15.70;77.00
48978;DHT22;34793;48.940;2.618;2022-12-29T14:04:25;15.70;76.80
48978;DHT22;34793;48.940;2.618;2022-12-29T14:07:04;15.80;76.60
48978;DHT22;34793;48.940;2.618;2022-12-29T14:12:05;15.60;76.50
48978;DHT22;34793;48.940;2.618;2022-12-29T14:14:43;15.80;77.00
48978;DHT22;34793;48.940;2.618;2022-12-29T14:17:09;15.90;76.20
48978;DHT22;34793;48.940;2.618;2022-12-29T14:19:37;15.90;76.00
48978;DHT22;34793;48.940;2.618;2022-12-29T14:22:06;16.00;75.70
48978;DHT22;34793;48.940;2.618;2022-12-29T14:29:47;16.00;75.30
48978;DHT22;34793;48.940;2.618;2022-12-29T14:32:35;16.10;75.20
48978;DHT22;34793;48.940;2.618;2022-12-29T14:35:31;16.30;75.00
48978;DHT22;34793;48.940;2.618;2022-12-29T14:37:46;16.40;74.90
48978;DHT22;34793;48.940;2.618;2022-12-29T14:40:19;16.40;73.70
48978;DHT22;34793;48.940;2.618;2022-12-29T14:42:48;16.20;74.50
48978;DHT22;34793;48.940;2.618;2022-12-29T14:47:43;16.30;74.60
48978;DHT22;34793;48.940;2.618;2022-12-29T14:50:21;16.00;74.20
48978;DHT22;34793;48.940;2.618;2022-12-29T14:52:58;16.00;74.40
48978;DHT22;34793;48.940;2.618;2022-12-29T14:55:38;16.10;74.50
48978;DHT22;34793;48.940;2.618;2022-12-29T14:58:05;16.10;74.00
48978;DHT22;34793;48.940;2.618;2022-12-29T15:00:34;16.10;73.90
48978;DHT22;34793;48.940;2.618;2022-12-29T15:05:43;16.30;74.00
48978;DHT22;34793;48.940;2.618;2022-12-29T15:08:10;16.40;73.20
48978;DHT22;34793;48.940;2.618;2022-12-29T15:10:42;16.30;73.50
48978;DHT22;34793;48.940;2.618;2022-12-29T15:13:15;16.20;73.60
48978;DHT22;34793;48.940;2.618;2022-12-29T15:15:41;16.30;73.80
48978;DHT22;34793;48.940;2.618;2022-12-29T15:18:26;16.30;74.00
48978;DHT22;34793;48.940;2.618;2022-12-29T15:20:54;16.50;73.70
48978;DHT22;34793;48.940;2.618;2022-12-29T15:23:20;16.50;73.30
48978;DHT22;34793;48.940;2.618;2022-12-29T15:25:51;16.60;73.20
48978;DHT22;34793;48.940;2.618;2022-12-29T15:28:19;16.50;73.20
48978;DHT22;34793;48.940;2.618;2022-12-29T15:30:55;16.50;73.00
48978;DHT22;34793;48.940;2.618;2022-12-29T15:33:22;16.60;73.50
48978;DHT22;34793;48.940;2.618;2022-12-29T15:35:52;16.80;72.70
48978;DHT22;34793;48.940;2.618;2022-12-29T15:38:25;16.90;72.60
48978;DHT22;34793;48.940;2.618;2022-12-29T15:41:02;17.00;72.20
48978;DHT22;34793;48.940;2.618;2022-12-29T15:45:58;16.60;71.90
48978;DHT22;34793;48.940;2.618;2022-12-29T15:48:25;16.80;72.30
48978;DHT22;34793;48.940;2.618;2022-12-29T15:50:51;16.80;71.80
48978;DHT22;34793;48.940;2.618;2022-12-29T15:53:24;16.50;71.80
48978;DHT22;34793;48.940;2.618;2022-12-29T15:55:54;16.20;72.50
48978;DHT22;34793;48.940;2.618;2022-12-29T15:58:21;16.20;72.70
48978;DHT22;34793;48.940;2.618;2022-12-29T16:00:49;16.10;72.50
48978;DHT22;34793;48.940;2.618;2022-12-29T16:03:14;16.20;73.10
48978;DHT22;34793;48.940;2.618;2022-12-29T16:05:41;16.10;72.80
48978;DHT22;34793;48.940;2.618;2022-12-29T16:10:50;16.00;72.10
48978;DHT22;34793;48.940;2.618;2022-12-29T16:15:47;15.60;72.30
48978;DHT22;34793;48.940;2.618;2022-12-29T16:18:20;15.50;72.30
48978;DHT22;34793;48.940;2.618;2022-12-29T16:20:47;15.40;72.70
48978;DHT22;34793;48.940;2.618;2022-12-29T16:23:16;15.50;72.40
48978;DHT22;34793;48.940;2.618;2022-12-29T16:25:43;15.50;72.60
48978;DHT22;34793;48.940;2.618;2022-12-29T16:28:19;15.50;72.40
48978;DHT22;34793;48.940;2.618;2022-12-29T16:30:45;15.60;72.40
48978;DHT22;34793;48.940;2.618;2022-12-29T16:33:29;15.60;72.40
48978;DHT22;34793;48.940;2.618;2022-12-29T16:35:56;15.80;72.10
48978;DHT22;34793;48.940;2.618;2022-12-29T16:38:22;15.70;72.50
48978;DHT22;34793;48.940;2.618;2022-12-29T16:40:51;15.60;73.00
48978;DHT22;34793;48.940;2.618;2022-12-29T16:50:46;16.00;73.50
48978;DHT22;34793;48.940;2.618;2022-12-29T16:55:47;15.80;73.80
48978;DHT22;34793;48.940;2.618;2022-12-29T16:58:15;15.90;73.90
48978;DHT22;34793;48.940;2.618;2022-12-29T17:00:44;15.80;74.20
48978;DHT22;34793;48.940;2.618;2022-12-29T17:03:10;15.60;75.00
48978;DHT22;34793;48.940;2.618;2022-12-29T17:05:36;15.50;75.40
48978;DHT22;34793;48.940;2.618;2022-12-29T17:08:02;15.30;75.50
48978;DHT22;34793;48.940;2.618;2022-12-29T17:10:27;15.40;75.50
48978;DHT22;34793;48.940;2.618;2022-12-29T17:13:13;15.40;75.40
48978;DHT22;34793;48.940;2.618;2022-12-29T17:15:38;15.30;75.90
48978;DHT22;34793;48.940;2.618;2022-12-29T17:18:04;15.10;76.10
48978;DHT22;34793;48.940;2.618;2022-12-29T17:20:30;15.10;76.30
48978;DHT22;34793;48.940;2.618;2022-12-29T17:22:56;15.20;75.90
48978;DHT22;34793;48.940;2.618;2022-12-29T17:27:55;15.20;75.10
48978;DHT22;34793;48.940;2.618;2022-12-29T17:30:21;15.30;75.60
48978;DHT22;34793;48.940;2.618;2022-12-29T17:32:53;15.30;75.50
48978;DHT22;34793;48.940;2.618;2022-12-29T17:35:20;15.30;75.60
48978;DHT22;34793;48.940;2.618;2022-12-29T17:37:45;15.30;75.80
48978;DHT22;34793;48.940;2.618;2022-12-29T17:40:15;15.30;76.30
48978;DHT22;34793;48.940;2.618;2022-12-29T17:42:42;15.20;76.50
48978;DHT22;34793;48.940;2.618;2022-12-29T17:45:15;15.10;76.90
48978;DHT22;34793;48.940;2.618;2022-12-29T17:47:41;15.20;76.70
48978;DHT22;34793;48.940;2.618;2022-12-29T17:50:15;15.40;76.20
48978;DHT22;34793;48.940;2.618;2022-12-29T17:52:41;15.30;76.90
48978;DHT22;34793;48.940;2.618;2022-12-29T17:55:14;15.20;77.00
48978;DHT22;34793;48.940;2.618;2022-12-29T17:57:40;15.30;76.70
48978;DHT22;34793;48.940;2.618;2022-12-29T18:00:05;15.20;77.20
48978;DHT22;34793;48.940;2.618;2022-12-29T18:02:32;15.10;77.40
48978;DHT22;34793;48.940;2.618;2022-12-29T18:04:58;14.90;77.80
48978;DHT22;34793;48.940;2.618;2022-12-29T18:07:27;14.90;78.10
48978;DHT22;34793;48.940;2.618;2022-12-29T18:09:53;14.90;78.30
48978;DHT22;34793;48.940;2.618;2022-12-29T18:12:29;15.00;77.70